createdAt,value
2023-07-08T00:01:25.955Z,13.33
2023-07-08T00:03:53.021Z,13.31
2023-07-08T00:06:23.215Z,13.32
2023-07-08T00:08:49.759Z,13.31
2023-07-08T00:11:19.099Z,13.26
2023-07-08T00:13:45.855Z,13.18
2023-07-08T00:16:14.141Z,13.10
2023-07-08T00:18:40.880Z,13.07
2023-07-08T00:21:10.791Z,13.08
2023-07-08T00:23:37.132Z,13.10
2023-07-08T00:26:10.000Z,13.16
2023-07-08T00:28:36.360Z,13.19
2023-07-08T00:31:03.072Z,13.19
2023-07-08T00:33:29.767Z,13.23
2023-07-08T00:36:06.621Z,13.27
2023-07-08T00:38:34.633Z,13.21
2023-07-08T00:41:10.026Z,13.19
2023-07-08T00:43:39.053Z,13.17
2023-07-08T00:46:18.791Z,13.16
2023-07-08T00:48:46.566Z,13.18
2023-07-08T00:51:13.196Z,13.16
2023-07-08T00:53:40.224Z,13.14
2023-07-08T00:56:13.706Z,13.11
2023-07-08T00:58:46.074Z,13.10
2023-07-08T01:01:13.218Z,13.14
2023-07-08T01:03:46.287Z,13.14
2023-07-08T01:06:13.390Z,13.16
2023-07-08T01:08:40.508Z,13.19
2023-07-08T01:11:07.242Z,13.22
2023-07-08T01:13:38.065Z,13.33
2023-07-08T01:16:05.833Z,13.37
2023-07-08T01:18:33.910Z,13.44
2023-07-08T01:21:06.537Z,13.43
2023-07-08T01:23:34.535Z,13.40
2023-07-08T01:26:01.395Z,13.38
2023-07-08T01:28:29.490Z,13.33
2023-07-08T01:30:59.189Z,13.31
2023-07-08T01:33:26.222Z,13.32
2023-07-08T01:35:53.038Z,13.34
2023-07-08T01:38:24.600Z,13.33
2023-07-08T01:40:56.075Z,13.31
2023-07-08T01:43:22.459Z,13.36
2023-07-08T01:45:51.701Z,13.39
2023-07-08T01:48:20.439Z,13.38
2023-07-08T01:50:55.394Z,13.38
2023-07-08T01:53:29.396Z,13.37
2023-07-08T01:55:56.603Z,13.35
2023-07-08T01:58:22.961Z,13.35
2023-07-08T02:00:49.519Z,13.31
2023-07-08T02:03:15.967Z,13.24
2023-07-08T02:05:42.374Z,13.16
2023-07-08T02:08:08.905Z,13.13
2023-07-08T02:10:35.235Z,13.12
2023-07-08T02:13:02.242Z,13.04
2023-07-08T02:15:28.601Z,12.99
2023-07-08T02:17:54.985Z,13.03
2023-07-08T02:20:21.420Z,13.05
2023-07-08T02:22:47.780Z,13.07
2023-07-08T02:25:14.180Z,13.00
2023-07-08T02:27:40.528Z,12.95
2023-07-08T02:30:09.331Z,12.95
2023-07-08T02:32:38.900Z,12.97
2023-07-08T02:35:06.162Z,13.01
2023-07-08T02:37:32.804Z,12.97
2023-07-08T02:39:59.254Z,12.90
2023-07-08T02:42:25.546Z,12.80
2023-07-08T02:44:52.159Z,12.68
2023-07-08T02:47:19.110Z,12.65
2023-07-08T02:49:45.998Z,12.60
2023-07-08T02:52:12.929Z,12.63
2023-07-08T02:54:39.267Z,12.74
2023-07-08T02:57:05.664Z,12.82
2023-07-08T02:59:31.968Z,12.89
2023-07-08T03:01:58.274Z,12.91
2023-07-08T03:04:25.530Z,12.95
2023-07-08T03:06:51.880Z,12.96
2023-07-08T03:09:18.266Z,12.95
2023-07-08T03:11:44.687Z,12.90
2023-07-08T03:14:11.104Z,12.86
2023-07-08T03:16:37.412Z,12.86
2023-07-08T03:19:05.080Z,12.90
2023-07-08T03:21:32.125Z,12.89
2023-07-08T03:23:58.480Z,12.81
2023-07-08T03:26:27.630Z,12.75
2023-07-08T03:28:54.776Z,12.73
2023-07-08T03:31:21.224Z,12.73
2023-07-08T03:33:47.571Z,12.81
2023-07-08T03:36:22.888Z,12.86
2023-07-08T03:38:50.943Z,12.88
2023-07-08T03:41:17.778Z,12.89
2023-07-08T03:43:44.130Z,12.92
2023-07-08T03:46:11.446Z,12.95
2023-07-08T03:48:37.938Z,12.98
2023-07-08T03:51:04.574Z,13.01
2023-07-08T03:53:30.914Z,13.00
2023-07-08T03:55:57.876Z,13.00
2023-07-08T03:58:24.171Z,13.01
2023-07-08T04:00:50.605Z,13.02
2023-07-08T04:03:17.005Z,13.06
2023-07-08T04:05:43.374Z,13.07
2023-07-08T04:08:09.696Z,13.13
2023-07-08T04:10:36.099Z,13.23
2023-07-08T04:13:03.062Z,13.29
2023-07-08T04:15:29.383Z,13.35
2023-07-08T04:17:57.480Z,13.42
2023-07-08T04:20:24.077Z,13.41
2023-07-08T04:22:50.401Z,13.41
2023-07-08T04:25:16.772Z,13.50
2023-07-08T04:27:43.329Z,13.67
2023-07-08T04:30:20.577Z,13.81
2023-07-08T04:32:46.978Z,13.86
2023-07-08T04:35:13.501Z,13.88
2023-07-08T04:37:39.837Z,14.06
2023-07-08T04:40:13.729Z,14.25
2023-07-08T04:42:40.053Z,14.30
2023-07-08T04:45:07.353Z,14.41
2023-07-08T04:47:34.405Z,14.54
2023-07-08T04:50:00.830Z,14.57
2023-07-08T04:52:27.168Z,14.65
2023-07-08T04:54:53.485Z,14.74
2023-07-08T04:57:21.408Z,14.95
2023-07-08T04:59:47.785Z,15.11
2023-07-08T05:02:14.488Z,15.12
2023-07-08T05:04:41.478Z,15.23
2023-07-08T05:07:07.790Z,15.36
2023-07-08T05:09:35.852Z,15.50
2023-07-08T05:12:02.204Z,15.61
2023-07-08T05:14:28.548Z,15.81
2023-07-08T05:16:54.875Z,15.94
2023-07-08T05:19:22.440Z,16.02
2023-07-08T05:21:49.388Z,16.03
2023-07-08T05:24:15.790Z,16.15
2023-07-08T05:26:42.108Z,16.29
2023-07-08T05:29:08.553Z,16.40
2023-07-08T05:34:04.283Z,16.58
2023-07-08T05:36:30.694Z,16.75
2023-07-08T05:38:57.943Z,17.05
2023-07-08T05:41:24.339Z,17.29
2023-07-08T05:43:50.641Z,17.48
2023-07-08T05:46:17.000Z,17.70
2023-07-08T05:48:43.366Z,17.93
2023-07-08T05:51:09.727Z,18.25
2023-07-08T05:53:36.031Z,18.38
2023-07-08T05:56:04.093Z,18.55
2023-07-08T05:58:30.440Z,18.70
2023-07-08T06:00:57.552Z,18.83
2023-07-08T06:03:24.128Z,19.07
2023-07-08T06:05:50.701Z,19.22
2023-07-08T06:08:17.188Z,19.36
2023-07-08T06:10:44.410Z,19.52
2023-07-08T06:13:11.585Z,19.69
2023-07-08T06:15:38.067Z,19.86
2023-07-08T06:18:04.596Z,20.01
2023-07-08T06:20:30.959Z,20.13
2023-07-08T06:22:57.399Z,20.13
2023-07-08T06:25:23.791Z,20.14
2023-07-08T06:27:51.868Z,20.18
2023-07-08T06:30:20.027Z,20.20
2023-07-08T06:32:46.354Z,20.33
2023-07-08T06:35:12.705Z,20.47
2023-07-08T06:37:39.130Z,20.60
2023-07-08T06:40:06.872Z,20.72
2023-07-08T06:42:33.194Z,20.72
2023-07-08T06:44:59.565Z,20.75
2023-07-08T06:47:26.564Z,20.87
2023-07-08T06:49:52.945Z,20.93
2023-07-08T06:52:19.310Z,20.90
2023-07-08T06:54:45.625Z,20.97
2023-07-08T06:57:12.267Z,21.09
2023-07-08T06:59:38.593Z,21.17
2023-07-08T07:02:05.291Z,21.29
2023-07-08T07:04:32.875Z,21.35
2023-07-08T07:06:59.305Z,21.44
2023-07-08T07:09:26.765Z,21.50
2023-07-08T07:11:55.722Z,21.65
2023-07-08T07:17:06.514Z,21.95
2023-07-08T07:19:35.638Z,21.98
2023-07-08T07:22:02.372Z,22.11
2023-07-08T07:24:28.894Z,22.26
2023-07-08T07:26:55.360Z,22.42
2023-07-08T07:29:23.092Z,22.53
2023-07-08T07:31:49.659Z,22.70
2023-07-08T07:34:16.037Z,22.83
2023-07-08T07:36:43.082Z,22.64
2023-07-08T07:39:09.529Z,22.70
2023-07-08T07:41:35.823Z,22.79
2023-07-08T07:44:02.152Z,22.89
2023-07-08T07:46:28.579Z,22.98
2023-07-08T07:48:54.922Z,23.01
2023-07-08T07:51:21.341Z,23.12
2023-07-08T07:53:48.442Z,23.19
2023-07-08T07:56:14.786Z,23.15
2023-07-08T07:58:41.097Z,23.35
2023-07-08T08:01:07.780Z,23.48
2023-07-08T08:03:34.263Z,23.61
2023-07-08T08:06:00.964Z,23.66
2023-07-08T08:08:27.525Z,23.76
2023-07-08T08:10:54.581Z,23.83
2023-07-08T08:13:20.949Z,23.80
2023-07-08T08:15:47.313Z,23.78
2023-07-08T08:18:13.681Z,23.84
2023-07-08T08:20:41.399Z,24.03
2023-07-08T08:23:07.812Z,24.20
2023-07-08T08:25:34.193Z,24.27
2023-07-08T08:28:01.208Z,24.33
2023-07-08T08:30:27.589Z,24.39
2023-07-08T08:32:54.004Z,24.41
2023-07-08T08:35:20.408Z,24.47
2023-07-08T08:37:46.713Z,24.57
2023-07-08T08:40:15.612Z,24.34
2023-07-08T08:42:47.040Z,24.26
2023-07-08T08:45:20.792Z,24.38
2023-07-08T08:47:51.379Z,24.57
2023-07-08T08:50:29.074Z,24.73
2023-07-08T08:52:57.154Z,24.82
2023-07-08T08:55:24.768Z,25.01
2023-07-08T08:58:00.249Z,25.06
2023-07-08T09:00:37.764Z,24.93
2023-07-08T09:03:11.218Z,24.98
2023-07-08T09:05:37.688Z,25.10
2023-07-08T09:08:13.319Z,25.31
2023-07-08T09:10:46.011Z,25.41
2023-07-08T09:13:20.263Z,25.59
2023-07-08T09:15:50.466Z,25.47
2023-07-08T09:18:26.302Z,25.53
2023-07-08T09:20:54.030Z,25.77
2023-07-08T09:23:25.570Z,26.02
2023-07-08T09:26:00.071Z,26.34
2023-07-08T09:28:37.442Z,26.55
2023-07-08T09:31:07.812Z,26.58
2023-07-08T09:33:35.258Z,26.50
2023-07-08T09:36:06.154Z,26.87
2023-07-08T09:38:36.228Z,27.14
2023-07-08T09:41:02.882Z,27.09
2023-07-08T09:43:36.569Z,26.84
2023-07-08T09:46:03.072Z,26.66
2023-07-08T09:48:35.536Z,26.79
2023-07-08T09:51:03.000Z,26.87
2023-07-08T09:53:29.884Z,26.78
2023-07-08T09:55:59.269Z,26.90
2023-07-08T09:58:30.040Z,26.95
2023-07-08T10:00:59.733Z,26.83
2023-07-08T10:03:30.641Z,27.11
2023-07-08T10:06:01.105Z,27.43
2023-07-08T10:08:34.908Z,27.53
2023-07-08T10:11:04.307Z,27.37
2023-07-08T10:13:39.117Z,27.67
2023-07-08T10:16:13.929Z,28.06
2023-07-08T10:18:41.927Z,28.24
2023-07-08T10:21:21.265Z,28.44
2023-07-08T10:23:54.897Z,28.53
2023-07-08T10:26:26.193Z,28.33
2023-07-08T10:29:04.487Z,28.21
2023-07-08T10:31:38.396Z,27.94
2023-07-08T10:34:19.231Z,28.07
2023-07-08T10:36:53.510Z,27.98
2023-07-08T10:39:44.165Z,28.38
2023-07-08T10:42:26.137Z,28.86
2023-07-08T10:45:05.050Z,29.20
2023-07-08T10:47:44.724Z,28.99
2023-07-08T10:50:25.370Z,29.06
2023-07-08T10:53:03.632Z,29.47
2023-07-08T10:55:38.923Z,29.65
2023-07-08T10:58:21.745Z,29.89
2023-07-08T11:00:57.316Z,30.45
2023-07-08T11:03:53.768Z,30.36
2023-07-08T11:06:23.499Z,30.33
2023-07-08T11:08:55.936Z,30.23
2023-07-08T11:11:33.779Z,30.28
2023-07-08T11:14:09.247Z,30.47
2023-07-08T11:16:41.654Z,30.55
2023-07-08T11:19:13.972Z,30.39
2023-07-08T11:21:47.012Z,30.17
2023-07-08T11:24:24.638Z,30.16
2023-07-08T11:26:56.143Z,30.19
2023-07-08T11:29:28.859Z,30.19
2023-07-08T11:31:56.173Z,30.48
2023-07-08T11:34:24.003Z,30.97
2023-07-08T11:36:51.743Z,31.26
2023-07-08T11:39:33.292Z,31.25
2023-07-08T11:42:19.020Z,31.46
2023-07-08T11:44:52.027Z,31.62
2023-07-08T11:47:22.962Z,31.73
2023-07-08T11:49:51.630Z,31.73
2023-07-08T11:52:20.247Z,31.75
2023-07-08T11:54:48.856Z,32.02
2023-07-08T11:57:23.624Z,31.75
2023-07-08T12:00:14.320Z,31.65
2023-07-08T12:02:50.740Z,31.40
2023-07-08T12:05:17.409Z,31.18
2023-07-08T12:07:47.120Z,30.89
2023-07-08T12:10:17.807Z,30.68
2023-07-08T12:12:46.053Z,30.91
2023-07-08T12:15:17.670Z,30.87
2023-07-08T12:17:45.273Z,30.72
2023-07-08T12:20:23.161Z,30.79
2023-07-08T12:22:49.768Z,30.86
2023-07-08T12:25:19.851Z,31.09
2023-07-08T12:27:47.139Z,31.10
2023-07-08T12:30:15.367Z,30.95
2023-07-08T12:32:43.190Z,31.26
2023-07-08T12:35:21.429Z,31.17
2023-07-08T12:37:47.858Z,31.23
2023-07-08T12:40:14.741Z,31.44
2023-07-08T12:42:41.718Z,31.66
2023-07-08T12:45:15.382Z,31.57
2023-07-08T12:47:42.146Z,31.44
2023-07-08T12:50:09.912Z,31.71
2023-07-08T12:52:36.249Z,31.77
2023-07-08T12:55:02.888Z,31.77
2023-07-08T12:57:32.230Z,31.69
2023-07-08T13:00:01.527Z,31.36
2023-07-08T13:02:32.009Z,31.37
2023-07-08T13:05:01.694Z,31.18
2023-07-08T13:07:35.258Z,31.09
2023-07-08T13:10:02.925Z,31.15
2023-07-08T13:12:29.715Z,31.05
2023-07-08T13:15:00.132Z,30.86
2023-07-08T13:17:26.918Z,30.84
2023-07-08T13:19:53.522Z,30.83
2023-07-08T13:22:21.572Z,31.07
2023-07-08T13:24:49.313Z,31.23
2023-07-08T13:27:23.408Z,31.29
2023-07-08T13:29:52.559Z,31.32
2023-07-08T13:32:19.566Z,31.18
2023-07-08T13:34:49.404Z,31.12
2023-07-08T13:37:15.772Z,31.18
2023-07-08T13:39:46.474Z,30.98
2023-07-08T13:42:13.253Z,30.85
2023-07-08T13:44:44.554Z,30.74
2023-07-08T13:47:21.172Z,30.34
2023-07-08T13:49:54.054Z,30.25
2023-07-08T13:52:22.764Z,30.21
2023-07-08T13:54:53.244Z,30.04
2023-07-08T13:57:21.916Z,30.23
2023-07-08T13:59:48.257Z,30.45
2023-07-08T14:02:18.000Z,30.63
2023-07-08T14:04:45.308Z,30.72
2023-07-08T14:07:16.508Z,30.75
2023-07-08T14:09:42.827Z,30.64
2023-07-08T14:12:09.400Z,30.79
2023-07-08T14:14:35.767Z,31.09
2023-07-08T14:17:02.512Z,31.17
2023-07-08T14:19:31.264Z,31.21
2023-07-08T14:22:00.294Z,31.05
2023-07-08T14:24:26.825Z,31.03
2023-07-08T14:26:54.246Z,31.18
2023-07-08T14:29:20.625Z,31.21
2023-07-08T14:31:47.044Z,31.09
2023-07-08T14:34:22.175Z,30.95
2023-07-08T14:36:48.632Z,31.00
2023-07-08T14:39:17.918Z,30.87
2023-07-08T14:41:45.746Z,30.72
2023-07-08T14:44:21.303Z,30.88
2023-07-08T14:46:47.786Z,30.88
2023-07-08T14:49:16.480Z,30.52
2023-07-08T14:51:42.807Z,30.48
2023-07-08T14:54:09.238Z,30.50
2023-07-08T14:56:36.662Z,30.41
2023-07-08T14:59:05.137Z,30.30
2023-07-08T15:01:31.793Z,30.20
2023-07-08T15:03:58.690Z,30.06
2023-07-08T15:06:25.436Z,29.90
2023-07-08T15:08:51.856Z,29.76
2023-07-08T15:11:19.042Z,29.75
2023-07-08T15:13:46.255Z,29.83
2023-07-08T15:16:14.438Z,29.96
2023-07-08T15:18:40.990Z,30.33
2023-07-08T15:21:10.638Z,30.80
2023-07-08T15:23:36.981Z,31.05
2023-07-08T15:26:03.423Z,31.09
2023-07-08T15:28:41.874Z,31.12
2023-07-08T15:31:11.481Z,31.21
2023-07-08T15:33:37.874Z,30.96
2023-07-08T15:36:04.307Z,30.76
2023-07-08T15:38:30.641Z,30.70
2023-07-08T15:40:56.948Z,30.48
2023-07-08T15:43:23.288Z,30.43
2023-07-08T15:45:49.687Z,30.54
2023-07-08T15:48:18.121Z,30.48
2023-07-08T15:50:45.045Z,30.69
2023-07-08T15:53:11.661Z,30.68
2023-07-08T15:55:41.567Z,30.88
2023-07-08T15:58:11.703Z,30.93
2023-07-08T16:00:40.757Z,31.11
2023-07-08T16:03:10.942Z,31.31
2023-07-08T16:05:38.206Z,31.38
2023-07-08T16:08:05.088Z,31.53
2023-07-08T16:10:32.374Z,31.46
2023-07-08T16:12:59.668Z,31.27
2023-07-08T16:15:29.555Z,30.88
2023-07-08T16:17:56.625Z,30.35
2023-07-08T16:20:25.530Z,30.11
2023-07-08T16:22:53.043Z,29.95
2023-07-08T16:25:25.657Z,30.14
2023-07-08T16:27:52.309Z,30.35
2023-07-08T16:30:21.944Z,30.76
2023-07-08T16:32:49.605Z,31.09
2023-07-08T16:35:18.702Z,31.27
2023-07-08T16:37:47.984Z,31.45
2023-07-08T16:40:17.620Z,31.46
2023-07-08T16:42:46.352Z,31.32
2023-07-08T16:45:15.100Z,31.33
2023-07-08T16:47:42.289Z,31.46
2023-07-08T16:50:10.033Z,31.47
2023-07-08T16:52:39.641Z,31.44
2023-07-08T16:55:10.884Z,31.39
2023-07-08T16:57:37.901Z,31.25
2023-07-08T17:00:05.719Z,31.39
2023-07-08T17:02:34.152Z,31.70
2023-07-08T17:05:00.609Z,31.85
2023-07-08T17:07:26.935Z,31.64
2023-07-08T17:09:53.366Z,31.78
2023-07-08T17:12:19.905Z,32.28
2023-07-08T17:14:46.915Z,33.51
2023-07-08T17:17:14.981Z,34.51
2023-07-08T17:19:41.372Z,34.59
2023-07-08T17:22:08.858Z,33.90
2023-07-08T17:24:35.430Z,33.37
2023-07-08T17:27:01.800Z,33.26
2023-07-08T17:29:28.381Z,32.85
2023-07-08T17:31:55.965Z,32.68
2023-07-08T17:34:27.316Z,32.58
2023-07-08T17:36:53.989Z,32.55
2023-07-08T17:39:20.802Z,31.99
2023-07-08T17:41:50.487Z,31.45
2023-07-08T17:44:16.954Z,30.85
2023-07-08T17:46:43.447Z,30.50
2023-07-08T17:49:12.769Z,30.14
2023-07-08T17:51:39.896Z,29.84
2023-07-08T17:54:06.851Z,29.61
2023-07-08T17:56:35.993Z,29.43
2023-07-08T17:59:03.815Z,29.25
2023-07-08T18:01:30.819Z,29.14
2023-07-08T18:03:57.536Z,28.97
2023-07-08T18:06:24.617Z,28.88
2023-07-08T18:08:51.175Z,28.76
2023-07-08T18:11:20.712Z,28.60
2023-07-08T18:13:49.574Z,28.44
2023-07-08T18:16:17.957Z,28.19
2023-07-08T18:18:44.867Z,28.00
2023-07-08T18:21:14.146Z,27.83
2023-07-08T18:23:42.095Z,27.60
2023-07-08T18:26:16.139Z,27.34
2023-07-08T18:28:42.491Z,27.10
2023-07-08T18:31:10.754Z,26.91
2023-07-08T18:33:37.197Z,26.64
2023-07-08T18:36:05.359Z,26.34
2023-07-08T18:38:31.775Z,26.21
2023-07-08T18:41:01.224Z,25.96
2023-07-08T18:43:30.118Z,25.64
2023-07-08T18:45:57.077Z,25.47
2023-07-08T18:48:23.639Z,25.24
2023-07-08T18:50:53.696Z,25.09
2023-07-08T18:53:21.628Z,24.90
2023-07-08T18:55:48.458Z,24.76
2023-07-08T18:58:16.889Z,24.60
2023-07-08T19:00:44.306Z,24.40
2023-07-08T19:03:19.185Z,24.19
2023-07-08T19:05:45.582Z,24.02
2023-07-08T19:08:11.906Z,23.84
2023-07-08T19:10:38.337Z,23.70
2023-07-08T19:13:11.485Z,23.49
2023-07-08T19:15:38.524Z,23.39
2023-07-08T19:18:04.932Z,23.22
2023-07-08T19:20:34.118Z,23.04
2023-07-08T19:23:01.135Z,22.86
2023-07-08T19:25:29.992Z,22.73
2023-07-08T19:27:56.451Z,22.55
2023-07-08T19:30:23.864Z,22.44
2023-07-08T19:32:54.262Z,22.33
2023-07-08T19:35:22.432Z,22.24
2023-07-08T19:37:49.621Z,22.13
2023-07-08T19:40:18.083Z,21.98
2023-07-08T19:42:47.989Z,21.89
2023-07-08T19:45:22.541Z,21.78
2023-07-08T19:47:49.652Z,21.55
2023-07-08T19:50:17.690Z,21.37
2023-07-08T19:52:44.300Z,21.38
2023-07-08T19:55:10.835Z,21.34
2023-07-08T19:57:43.258Z,21.26
2023-07-08T20:00:22.298Z,21.18
2023-07-08T20:02:49.128Z,21.09
2023-07-08T20:05:16.324Z,21.00
2023-07-08T20:07:43.091Z,20.89
2023-07-08T20:10:12.712Z,20.73
2023-07-08T20:12:39.186Z,20.69
2023-07-08T20:15:06.586Z,20.56
2023-07-08T20:17:33.540Z,20.52
2023-07-08T20:20:00.226Z,20.42
2023-07-08T20:22:30.222Z,20.36
2023-07-08T20:24:57.362Z,20.20
2023-07-08T20:27:27.369Z,20.11
2023-07-08T20:29:54.346Z,20.08
2023-07-08T20:32:20.744Z,20.00
2023-07-08T20:34:47.217Z,19.86
2023-07-08T20:37:14.539Z,19.81
2023-07-08T20:39:41.870Z,19.75
2023-07-08T20:42:12.588Z,19.72
2023-07-08T20:44:41.202Z,19.56
2023-07-08T20:47:15.265Z,19.48
2023-07-08T20:49:41.803Z,19.45
2023-07-08T20:52:10.634Z,19.39
2023-07-08T20:54:36.992Z,19.34
2023-07-08T20:57:04.928Z,19.25
2023-07-08T20:59:31.252Z,19.12
2023-07-08T21:01:57.647Z,19.03
2023-07-08T21:04:24.094Z,19.02
2023-07-08T21:06:50.507Z,18.90
2023-07-08T21:09:20.346Z,18.82
2023-07-08T21:11:46.720Z,18.69
2023-07-08T21:14:13.877Z,18.61
2023-07-08T21:16:41.885Z,18.53
2023-07-08T21:19:09.959Z,18.47
2023-07-08T21:21:36.329Z,18.42
2023-07-08T21:24:02.794Z,18.37
2023-07-08T21:26:31.250Z,18.29
2023-07-08T21:28:59.744Z,18.26
2023-07-08T21:31:27.030Z,18.30
2023-07-08T21:33:53.487Z,18.29
2023-07-08T21:36:23.405Z,18.26
2023-07-08T21:38:50.432Z,18.23
2023-07-08T21:41:16.961Z,18.09
2023-07-08T21:43:43.372Z,18.06
2023-07-08T21:46:10.405Z,17.95
2023-07-08T21:48:37.562Z,17.89
2023-07-08T21:51:07.065Z,17.82
2023-07-08T21:53:36.146Z,17.74
2023-07-08T21:56:03.952Z,17.70
2023-07-08T21:58:30.974Z,17.58
2023-07-08T22:00:57.649Z,17.51
2023-07-08T22:03:27.349Z,17.44
2023-07-08T22:05:54.762Z,17.48
2023-07-08T22:08:23.308Z,17.47
2023-07-08T22:10:51.750Z,17.39
2023-07-08T22:13:26.250Z,17.40
2023-07-08T22:15:53.454Z,17.30
2023-07-08T22:18:22.191Z,17.27
2023-07-08T22:20:49.683Z,17.26
2023-07-08T22:23:17.194Z,17.27
2023-07-08T22:25:43.538Z,17.26
2023-07-08T22:28:12.825Z,17.21
2023-07-08T22:30:39.515Z,17.17
2023-07-08T22:33:05.990Z,17.06
2023-07-08T22:35:32.707Z,17.06
2023-07-08T22:37:59.134Z,17.02
2023-07-08T22:40:27.590Z,16.95
2023-07-08T22:42:55.132Z,16.84
2023-07-08T22:45:21.602Z,16.81
2023-07-08T22:47:48.632Z,16.72
2023-07-08T22:50:16.202Z,16.63
2023-07-08T22:52:45.704Z,16.60
2023-07-08T22:55:15.731Z,16.57
2023-07-08T22:57:43.157Z,16.54
2023-07-08T23:00:16.164Z,16.55
2023-07-08T23:02:42.663Z,16.53
2023-07-08T23:05:09.164Z,16.58
2023-07-08T23:07:35.510Z,16.60
2023-07-08T23:10:01.924Z,16.60
2023-07-08T23:12:28.277Z,16.56
2023-07-08T23:14:55.708Z,16.57
2023-07-08T23:17:22.781Z,16.51
2023-07-08T23:19:49.149Z,16.49
2023-07-08T23:22:18.935Z,16.49
2023-07-08T23:24:45.669Z,16.52
2023-07-08T23:27:12.587Z,16.54
2023-07-08T23:29:39.116Z,16.49
2023-07-08T23:32:08.938Z,16.47
2023-07-08T23:34:35.580Z,16.42
2023-07-08T23:37:03.904Z,16.41
2023-07-08T23:39:31.180Z,16.33
2023-07-08T23:41:58.720Z,16.28
2023-07-08T23:44:26.804Z,16.29
2023-07-08T23:46:56.566Z,16.28
2023-07-08T23:49:27.247Z,16.31
2023-07-08T23:51:54.801Z,16.31
2023-07-08T23:54:23.548Z,16.32
2023-07-08T23:56:50.823Z,16.35
2023-07-08T23:59:17.988Z,16.37
